Strona główna
METAR-TAF:

METAR-TAF

Lotnisko :

Port lotniczy Sam Mbakwe

Owerri, Nigeria

Szerokość geograficzna: 5-25-35N, Długość geograficzna: 7-12-20E, wysokość: 114 m

Aktualna obserwacja pogody

Raport powstał 1 godzina i 26 minut temu, godzina 12:00 UTC
Cisza
Temperatura 30°C
Wilgotność 75%
Ciśnienie 1015 hPa
Widzialność 10 km lub więcej

METAR: DNIM 211200Z 00000KT 9999 BKN360M 30/25 Q1015 NOSIG

czas: 14:26 (13:26 UTC)


TAF: brakujący

Obserwacja i prognoza pogody dla ponad 4000 lotnisk (raport METAR i TAF).

Dostępne stacje oznaczono żółtymi i czerwonymi punktami na mapie.

Najedź kursorem aby zobaczyć nazwę stacji.

Kliknij aby zobaczyć obserwacje i prognozy pogody.

Aby zmienić mapę: kliknij na zielony przycisk z czarnym krzyżykiem, aby powiększyć; na zielony przycisk z myślnikiem, aby pomniejszyć; na zielone strzałki, aby przejść do map sąsiednich.


METAR-TAF: